createdAt,value
2023-02-07T00:01:35.252Z,1.33
2023-02-07T00:04:03.643Z,1.00
2023-02-07T00:06:36.697Z,1.20
2023-02-07T00:09:07.799Z,1.10
2023-02-07T00:11:40.514Z,1.07
2023-02-07T00:14:11.191Z,1.10
2023-02-07T00:16:39.740Z,1.20
2023-02-07T00:19:08.021Z,1.40
2023-02-07T00:21:37.657Z,1.30
2023-02-07T00:24:06.553Z,1.13
2023-02-07T00:26:34.720Z,1.10
2023-02-07T00:29:02.792Z,0.90
2023-02-07T00:31:34.044Z,1.00
2023-02-07T00:34:05.867Z,1.17
2023-02-07T00:36:37.006Z,1.10
2023-02-07T00:39:08.314Z,1.20
2023-02-07T00:41:36.465Z,1.00
2023-02-07T00:44:05.270Z,1.27
2023-02-07T00:46:33.750Z,1.03
2023-02-07T00:49:02.189Z,1.00
2023-02-07T00:51:30.417Z,0.70
2023-02-07T00:54:00.696Z,0.90
2023-02-07T00:56:31.449Z,1.30
2023-02-07T00:58:59.944Z,0.83
2023-02-07T01:01:29.021Z,1.20
2023-02-07T01:03:57.405Z,1.30
2023-02-07T01:06:25.828Z,1.03
2023-02-07T01:08:59.649Z,1.00
2023-02-07T01:11:28.901Z,1.03
2023-02-07T01:13:57.130Z,1.17
2023-02-07T01:16:28.035Z,1.03
2023-02-07T01:18:56.434Z,1.10
2023-02-07T01:21:27.280Z,0.90
2023-02-07T01:23:56.914Z,1.00
2023-02-07T01:26:27.393Z,1.10
2023-02-07T01:28:56.065Z,1.23
2023-02-07T01:31:24.995Z,1.00
2023-02-07T01:33:56.251Z,1.00
2023-02-07T01:36:25.159Z,1.17
2023-02-07T01:38:54.623Z,1.00
2023-02-07T01:41:23.967Z,1.33
2023-02-07T01:44:01.817Z,1.00
2023-02-07T01:46:32.454Z,0.97
2023-02-07T01:49:05.833Z,1.13
2023-02-07T01:51:35.867Z,1.07
2023-02-07T01:54:09.482Z,1.20
2023-02-07T01:56:44.276Z,1.20
2023-02-07T01:59:14.575Z,1.20
2023-02-07T02:01:44.216Z,1.43
2023-02-07T02:04:12.408Z,1.40
2023-02-07T02:06:42.377Z,0.80
2023-02-07T02:09:13.788Z,0.90
2023-02-07T02:12:23.427Z,0.83
2023-02-07T02:15:17.494Z,1.07
2023-02-07T02:18:01.568Z,0.93
2023-02-07T02:21:16.234Z,1.30
2023-02-07T02:24:05.097Z,1.37
2023-02-07T02:26:50.901Z,1.20
2023-02-07T02:30:05.102Z,1.10
2023-02-07T02:33:10.420Z,1.20
2023-02-07T02:35:49.774Z,1.40
2023-02-07T02:38:27.316Z,1.50
2023-02-07T02:41:02.560Z,1.63
2023-02-07T02:43:38.846Z,1.40
2023-02-07T02:46:13.261Z,1.43
2023-02-07T02:48:44.147Z,1.57
2023-02-07T02:51:12.271Z,1.20
2023-02-07T02:53:40.321Z,1.17
2023-02-07T02:56:43.725Z,1.53
2023-02-07T02:59:31.922Z,1.23
2023-02-07T03:02:13.197Z,1.50
2023-02-07T03:05:17.826Z,1.27
2023-02-07T03:07:58.253Z,1.27
2023-02-07T03:10:35.563Z,1.60
2023-02-07T03:13:15.899Z,2.17
2023-02-07T03:15:57.307Z,1.50
2023-02-07T03:18:34.533Z,1.40
2023-02-07T03:21:11.243Z,1.60
2023-02-07T03:23:40.339Z,1.10
2023-02-07T03:26:10.904Z,1.50
2023-02-07T03:28:40.533Z,1.57
2023-02-07T03:31:11.844Z,1.67
2023-02-07T03:33:40.364Z,1.43
2023-02-07T03:36:18.984Z,1.20
2023-02-07T03:38:47.573Z,1.40
2023-02-07T03:41:22.910Z,1.27
2023-02-07T03:43:52.524Z,2.20
2023-02-07T03:46:23.569Z,1.63
2023-02-07T03:48:51.623Z,2.00
2023-02-07T03:51:20.999Z,1.40
2023-02-07T03:53:49.000Z,2.00
2023-02-07T03:56:16.990Z,1.70
2023-02-07T03:58:45.236Z,1.63
2023-02-07T04:01:14.944Z,1.40
2023-02-07T04:03:42.969Z,1.60
2023-02-07T04:06:11.245Z,1.40
2023-02-07T04:08:40.590Z,1.63
2023-02-07T04:11:08.852Z,1.53
2023-02-07T04:13:36.966Z,1.70
2023-02-07T04:16:08.713Z,1.67
2023-02-07T04:18:36.775Z,1.77
2023-02-07T04:21:07.153Z,2.20
2023-02-07T04:23:36.290Z,1.77
2023-02-07T04:26:06.194Z,2.00
2023-02-07T04:28:36.090Z,1.90
2023-02-07T04:31:04.185Z,1.70
2023-02-07T04:33:32.278Z,1.67
2023-02-07T04:36:03.073Z,1.77
2023-02-07T04:38:31.890Z,2.10
2023-02-07T04:41:00.809Z,2.13
2023-02-07T04:43:30.476Z,2.17
2023-02-07T04:45:58.584Z,2.50
2023-02-07T04:48:27.012Z,1.90
2023-02-07T04:50:55.534Z,2.00
2023-02-07T04:53:23.752Z,1.90
2023-02-07T04:55:53.217Z,1.93
2023-02-07T04:58:21.908Z,2.23
2023-02-07T05:00:51.257Z,2.13
2023-02-07T05:03:19.330Z,1.73
2023-02-07T05:05:47.443Z,2.20
2023-02-07T05:08:18.135Z,1.53
2023-02-07T05:10:47.613Z,1.80
2023-02-07T05:13:15.705Z,2.70
2023-02-07T05:15:44.325Z,1.80
2023-02-07T05:18:13.732Z,1.93
2023-02-07T05:20:41.733Z,2.13
2023-02-07T05:23:11.984Z,2.37
2023-02-07T05:25:42.192Z,2.60
2023-02-07T05:28:12.084Z,2.97
2023-02-07T05:30:40.247Z,2.50
2023-02-07T05:33:07.730Z,2.10
2023-02-07T05:35:39.618Z,2.77
2023-02-07T05:38:10.758Z,2.80
2023-02-07T05:40:40.529Z,3.00
2023-02-07T05:43:09.333Z,2.67
2023-02-07T05:45:38.043Z,2.70
2023-02-07T05:48:06.883Z,2.40
2023-02-07T05:50:36.596Z,2.87
2023-02-07T05:53:05.461Z,2.50
2023-02-07T05:55:33.556Z,3.13
2023-02-07T05:58:01.582Z,2.80
2023-02-07T06:00:29.864Z,2.30
2023-02-07T06:02:57.870Z,2.50
2023-02-07T06:05:31.406Z,3.20
2023-02-07T06:08:00.912Z,2.43
2023-02-07T06:10:28.940Z,2.20
2023-02-07T06:12:56.981Z,3.00
2023-02-07T06:15:24.987Z,2.90
2023-02-07T06:17:53.075Z,2.70
2023-02-07T06:20:21.351Z,3.43
2023-02-07T06:22:49.319Z,3.30
2023-02-07T06:25:21.214Z,3.60
2023-02-07T06:27:49.476Z,2.83
2023-02-07T06:30:17.442Z,4.23
2023-02-07T06:32:45.487Z,2.33
2023-02-07T06:35:13.903Z,3.47
2023-02-07T06:37:41.977Z,3.00
2023-02-07T06:40:11.202Z,3.57
2023-02-07T06:42:40.627Z,3.57
2023-02-07T06:45:10.009Z,3.70
2023-02-07T06:47:38.094Z,4.83
2023-02-07T06:50:09.095Z,4.13
2023-02-07T06:52:37.372Z,5.50
2023-02-07T06:55:05.900Z,3.90
2023-02-07T06:57:34.016Z,4.30
2023-02-07T07:00:04.674Z,4.90
2023-02-07T07:02:33.007Z,5.03
2023-02-07T07:05:01.055Z,4.57
2023-02-07T07:07:29.254Z,6.17
2023-02-07T07:09:57.388Z,4.80
2023-02-07T07:12:25.457Z,4.77
2023-02-07T07:14:53.491Z,7.00
2023-02-07T07:17:22.882Z,6.47
2023-02-07T07:19:50.918Z,4.97
2023-02-07T07:22:21.422Z,6.00
2023-02-07T07:24:50.259Z,6.30
2023-02-07T07:27:18.359Z,5.27
2023-02-07T07:29:47.123Z,6.40
2023-02-07T07:32:28.601Z,5.37
2023-02-07T07:35:02.595Z,6.60
2023-02-07T07:37:30.737Z,6.33
2023-02-07T07:39:59.054Z,5.20
2023-02-07T07:42:27.275Z,5.57
2023-02-07T07:44:55.295Z,6.07
2023-02-07T07:47:24.939Z,6.90
2023-02-07T07:49:52.965Z,6.10
2023-02-07T07:52:22.312Z,6.37
2023-02-07T07:54:50.275Z,6.93
2023-02-07T07:57:20.334Z,6.67
2023-02-07T07:59:48.966Z,7.00
2023-02-07T08:02:16.928Z,5.63
2023-02-07T08:04:44.898Z,6.43
2023-02-07T08:07:12.889Z,5.33
2023-02-07T08:09:42.258Z,6.00
2023-02-07T08:12:10.395Z,5.63
2023-02-07T08:14:38.589Z,5.60
2023-02-07T08:17:08.467Z,5.83
2023-02-07T08:19:38.269Z,5.30
2023-02-07T08:22:06.350Z,6.03
2023-02-07T08:24:35.945Z,5.67
2023-02-07T08:27:05.804Z,5.97
2023-02-07T08:29:34.015Z,5.77
2023-02-07T08:32:02.161Z,5.13
2023-02-07T08:34:31.813Z,5.90
2023-02-07T08:36:59.835Z,6.07
2023-02-07T08:39:28.026Z,5.77
2023-02-07T08:41:57.235Z,5.50
2023-02-07T08:44:27.853Z,5.47
2023-02-07T08:46:56.043Z,5.13
2023-02-07T08:49:24.033Z,6.20
2023-02-07T08:51:52.706Z,6.33
2023-02-07T08:54:21.207Z,5.50
2023-02-07T08:56:49.229Z,6.77
2023-02-07T08:59:17.221Z,5.63
2023-02-07T09:01:46.599Z,7.20
2023-02-07T09:04:14.624Z,6.80
2023-02-07T09:06:42.646Z,5.43
2023-02-07T09:09:10.832Z,6.40
2023-02-07T09:11:39.043Z,6.70
2023-02-07T09:14:09.041Z,5.77
2023-02-07T09:16:37.916Z,5.43
2023-02-07T09:19:07.361Z,6.73
2023-02-07T09:21:37.476Z,5.90
2023-02-07T09:24:05.838Z,5.93
2023-02-07T09:26:35.268Z,6.67
2023-02-07T09:29:03.603Z,5.37
2023-02-07T09:31:31.821Z,6.00
2023-02-07T09:34:00.136Z,4.87
2023-02-07T09:36:30.881Z,5.70
2023-02-07T09:39:00.638Z,5.67
2023-02-07T09:41:37.954Z,5.37
2023-02-07T09:44:16.623Z,5.33
2023-02-07T09:46:52.035Z,5.17
2023-02-07T09:49:36.993Z,4.70
2023-02-07T09:52:12.704Z,5.00
2023-02-07T09:54:44.935Z,5.87
2023-02-07T09:57:21.166Z,5.50
2023-02-07T09:59:55.295Z,6.20
2023-02-07T10:02:28.995Z,4.93
2023-02-07T10:05:02.888Z,5.37
2023-02-07T10:07:32.516Z,5.03
2023-02-07T10:10:00.597Z,5.10
2023-02-07T10:13:01.160Z,5.03
2023-02-07T10:15:44.171Z,7.07
2023-02-07T10:18:30.815Z,5.83
2023-02-07T10:21:08.001Z,5.90
2023-02-07T10:23:56.421Z,6.07
2023-02-07T10:26:34.234Z,4.70
2023-02-07T10:29:46.470Z,6.10
2023-02-07T10:32:21.575Z,5.57
2023-02-07T10:34:52.567Z,4.73
2023-02-07T10:37:23.973Z,4.90
2023-02-07T10:40:01.588Z,5.50
2023-02-07T10:42:31.677Z,5.67
2023-02-07T10:44:59.758Z,6.00
2023-02-07T10:47:27.757Z,5.53
2023-02-07T10:49:57.009Z,4.67
2023-02-07T10:52:31.570Z,5.67
2023-02-07T10:55:02.932Z,5.23
2023-02-07T10:57:32.090Z,5.63
2023-02-07T11:00:05.336Z,5.50
2023-02-07T11:02:44.744Z,4.77
2023-02-07T11:05:35.710Z,4.67
2023-02-07T11:08:09.925Z,4.77
2023-02-07T11:10:42.500Z,5.27
2023-02-07T11:13:16.075Z,5.30
2023-02-07T11:15:52.182Z,5.70
2023-02-07T11:18:33.664Z,5.40
2023-02-07T11:21:01.736Z,5.90
2023-02-07T11:23:29.794Z,5.30
2023-02-07T11:25:59.338Z,4.43
2023-02-07T11:28:30.649Z,5.77
2023-02-07T11:31:03.990Z,5.97
2023-02-07T11:33:36.325Z,5.37
2023-02-07T11:36:22.245Z,5.67
2023-02-07T11:38:53.666Z,5.73
2023-02-07T11:41:25.565Z,6.23
2023-02-07T11:43:57.853Z,5.70
2023-02-07T11:46:35.817Z,5.40
2023-02-07T11:49:06.118Z,5.90
2023-02-07T11:51:35.232Z,5.97
2023-02-07T11:54:06.326Z,5.80
2023-02-07T11:56:41.049Z,5.07
2023-02-07T11:59:22.090Z,6.77
2023-02-07T12:01:55.800Z,5.80
2023-02-07T12:04:29.308Z,5.00
2023-02-07T12:07:02.645Z,5.40
2023-02-07T12:09:36.871Z,6.03
2023-02-07T12:12:14.088Z,7.17
2023-02-07T12:14:48.486Z,5.47
2023-02-07T12:17:22.899Z,4.77
2023-02-07T12:19:56.489Z,5.30
2023-02-07T12:22:30.286Z,6.30
2023-02-07T12:25:03.288Z,4.33
2023-02-07T12:27:38.253Z,5.37
2023-02-07T12:30:15.691Z,5.87
2023-02-07T12:32:54.606Z,5.33
2023-02-07T12:35:28.460Z,5.60
2023-02-07T12:38:06.730Z,5.37
2023-02-07T12:40:41.390Z,5.50
2023-02-07T12:43:19.386Z,5.87
2023-02-07T12:46:11.762Z,4.73
2023-02-07T12:49:00.907Z,5.50
2023-02-07T12:51:41.442Z,4.90
2023-02-07T12:54:26.396Z,4.90
2023-02-07T12:57:00.236Z,4.53
2023-02-07T12:59:43.273Z,6.80
2023-02-07T13:02:34.739Z,5.30
2023-02-07T13:05:37.963Z,6.40
2023-02-07T13:08:18.047Z,4.93
2023-02-07T13:10:58.076Z,4.97
2023-02-07T13:13:32.629Z,5.20
2023-02-07T13:16:10.004Z,5.30
2023-02-07T13:18:46.065Z,5.30
2023-02-07T13:21:24.277Z,5.20
2023-02-07T13:23:52.384Z,5.33
2023-02-07T13:26:26.163Z,6.00
2023-02-07T13:28:58.483Z,5.43
2023-02-07T13:31:41.782Z,6.30
2023-02-07T13:34:17.133Z,5.63
2023-02-07T13:36:49.013Z,6.60
2023-02-07T13:39:31.079Z,5.60
2023-02-07T13:42:15.625Z,5.07
2023-02-07T13:44:54.998Z,5.50
2023-02-07T13:47:40.563Z,5.90
2023-02-07T13:50:21.124Z,4.83
2023-02-07T13:52:59.914Z,6.40
2023-02-07T13:55:33.764Z,4.97
2023-02-07T13:58:19.879Z,4.10
2023-02-07T14:01:11.016Z,4.90
2023-02-07T14:03:40.563Z,5.67
2023-02-07T14:06:22.533Z,4.83
2023-02-07T14:09:05.438Z,4.97
2023-02-07T14:11:40.834Z,5.43
2023-02-07T14:14:25.508Z,4.50
2023-02-07T14:16:57.766Z,5.00
2023-02-07T14:19:52.354Z,5.83
2023-02-07T14:22:24.981Z,4.90
2023-02-07T14:25:23.066Z,5.13
2023-02-07T14:28:20.469Z,5.37
2023-02-07T14:31:09.121Z,4.73
2023-02-07T14:33:39.884Z,4.57
2023-02-07T14:36:26.028Z,5.30
2023-02-07T14:39:27.790Z,4.33
2023-02-07T14:42:13.020Z,4.63
2023-02-07T14:44:44.292Z,4.40
2023-02-07T14:47:24.367Z,4.53
2023-02-07T14:49:56.162Z,4.67
2023-02-07T14:52:28.176Z,4.83
2023-02-07T14:54:59.716Z,5.40
2023-02-07T14:57:38.503Z,6.10
2023-02-07T15:00:26.677Z,5.30
2023-02-07T15:02:57.692Z,4.80
2023-02-07T15:05:28.159Z,4.60
2023-02-07T15:08:08.069Z,5.03
2023-02-07T15:10:41.788Z,4.77
2023-02-07T15:13:26.017Z,4.23
2023-02-07T15:16:00.316Z,4.40
2023-02-07T15:18:33.427Z,5.30
2023-02-07T15:21:01.946Z,5.07
2023-02-07T15:23:31.915Z,5.07
2023-02-07T15:26:06.083Z,4.77
2023-02-07T15:28:39.398Z,4.57
2023-02-07T15:31:20.632Z,4.40
2023-02-07T15:33:55.303Z,6.40
2023-02-07T15:36:34.717Z,4.73
2023-02-07T15:39:06.224Z,5.27
2023-02-07T15:41:35.244Z,4.50
2023-02-07T15:44:07.219Z,4.93
2023-02-07T15:46:47.687Z,5.37
2023-02-07T15:49:31.364Z,5.13
2023-02-07T15:52:13.425Z,4.70
2023-02-07T15:54:46.955Z,4.97
2023-02-07T15:57:26.767Z,3.97
2023-02-07T16:00:01.733Z,4.53
2023-02-07T16:02:32.839Z,3.30
2023-02-07T16:05:09.419Z,4.60
2023-02-07T16:07:39.727Z,4.27
2023-02-07T16:10:20.749Z,3.83
2023-02-07T16:12:53.026Z,4.80
2023-02-07T16:15:30.097Z,4.57
2023-02-07T16:17:58.265Z,4.67
2023-02-07T16:20:28.047Z,4.30
2023-02-07T16:22:59.788Z,4.30
2023-02-07T16:25:30.956Z,4.33
2023-02-07T16:27:59.257Z,4.33
2023-02-07T16:30:32.760Z,4.13
2023-02-07T16:33:05.862Z,4.90
2023-02-07T16:35:34.329Z,4.10
2023-02-07T16:38:02.388Z,4.67
2023-02-07T16:40:30.736Z,4.13
2023-02-07T16:42:59.076Z,3.10
2023-02-07T16:45:30.174Z,3.60
2023-02-07T16:48:00.617Z,3.83
2023-02-07T16:50:31.449Z,3.50
2023-02-07T16:52:59.802Z,3.57
2023-02-07T16:55:29.619Z,4.73
2023-02-07T16:57:58.634Z,4.17
2023-02-07T17:00:28.715Z,3.60
2023-02-07T17:02:57.946Z,3.17
2023-02-07T17:05:26.049Z,4.70
2023-02-07T17:07:54.041Z,3.47
2023-02-07T17:10:27.125Z,3.30
2023-02-07T17:12:55.314Z,3.30
2023-02-07T17:15:24.237Z,3.43
2023-02-07T17:17:53.919Z,3.30
2023-02-07T17:20:26.408Z,4.10
2023-02-07T17:22:55.392Z,3.30
2023-02-07T17:25:26.494Z,3.13
2023-02-07T17:27:54.569Z,3.43
2023-02-07T17:30:25.727Z,2.80
2023-02-07T17:32:56.193Z,3.73
2023-02-07T17:35:25.220Z,4.43
2023-02-07T17:37:53.598Z,28.20
2023-02-07T17:40:30.648Z,62.57
2023-02-07T17:42:59.440Z,34.73
2023-02-07T17:45:29.501Z,19.47
2023-02-07T17:47:59.587Z,18.40
2023-02-07T17:50:30.832Z,12.70
2023-02-07T17:53:01.355Z,24.87
2023-02-07T17:55:30.180Z,12.90
2023-02-07T17:57:58.497Z,18.53
2023-02-07T18:00:30.289Z,9.20
2023-02-07T18:02:59.659Z,13.67
2023-02-07T18:05:27.679Z,11.00
2023-02-07T18:07:55.796Z,16.93
2023-02-07T18:10:27.349Z,10.53
2023-02-07T18:12:55.749Z,12.23
2023-02-07T18:15:24.926Z,9.27
2023-02-07T18:17:55.643Z,10.33
2023-02-07T18:20:28.641Z,18.00
2023-02-07T18:22:58.827Z,13.87
2023-02-07T18:25:29.348Z,7.97
2023-02-07T18:27:58.279Z,14.93
2023-02-07T18:30:28.575Z,14.80
2023-02-07T18:32:56.692Z,10.47
2023-02-07T18:35:26.052Z,4.60
2023-02-07T18:37:54.037Z,3.50
2023-02-07T18:40:22.386Z,3.30
2023-02-07T18:42:50.598Z,3.47
2023-02-07T18:45:18.850Z,3.60
2023-02-07T18:47:48.283Z,2.80
2023-02-07T18:50:19.531Z,3.17
2023-02-07T18:52:49.709Z,4.00
2023-02-07T18:55:17.841Z,3.17
2023-02-07T18:57:45.821Z,3.00
2023-02-07T19:00:15.417Z,3.60
2023-02-07T19:02:43.565Z,3.37
2023-02-07T19:05:11.721Z,3.30
2023-02-07T19:07:40.686Z,2.60
2023-02-07T19:10:12.202Z,2.87
2023-02-07T19:12:40.629Z,3.30
2023-02-07T19:15:10.124Z,2.97
2023-02-07T19:17:38.170Z,3.93
2023-02-07T19:20:06.886Z,3.27
2023-02-07T19:22:36.255Z,2.73
2023-02-07T19:25:05.506Z,3.70
2023-02-07T19:27:35.113Z,3.43
2023-02-07T19:30:03.336Z,3.43
2023-02-07T19:32:31.405Z,2.70
2023-02-07T19:34:59.522Z,3.07
2023-02-07T19:37:27.669Z,3.20
2023-02-07T19:39:57.220Z,2.80
2023-02-07T19:42:25.675Z,3.07
2023-02-07T19:44:55.084Z,2.67
2023-02-07T19:47:23.138Z,3.03
2023-02-07T19:49:52.300Z,2.30
2023-02-07T19:52:20.911Z,3.30
2023-02-07T19:54:48.911Z,2.97
2023-02-07T19:57:17.644Z,2.30
2023-02-07T19:59:48.246Z,2.70
2023-02-07T20:02:17.760Z,2.77
2023-02-07T20:04:45.837Z,2.77
2023-02-07T20:07:13.886Z,2.67
2023-02-07T20:09:42.962Z,2.33
2023-02-07T20:12:10.976Z,2.87
2023-02-07T20:14:39.136Z,2.70
2023-02-07T20:17:07.587Z,3.20
2023-02-07T20:19:38.024Z,2.93
2023-02-07T20:22:06.149Z,2.90
2023-02-07T20:24:34.167Z,2.97
2023-02-07T20:27:02.362Z,2.57
2023-02-07T20:29:32.478Z,2.60
2023-02-07T20:32:00.585Z,3.13
2023-02-07T20:34:28.603Z,2.67
2023-02-07T20:36:57.975Z,2.23
2023-02-07T20:39:26.683Z,3.13
2023-02-07T20:41:56.910Z,3.13
2023-02-07T20:44:26.517Z,2.90
2023-02-07T20:46:56.301Z,3.90
2023-02-07T20:49:28.384Z,2.70
2023-02-07T20:51:59.716Z,3.00
2023-02-07T20:54:30.122Z,3.40
2023-02-07T20:56:58.447Z,2.40
2023-02-07T20:59:29.445Z,2.53
2023-02-07T21:01:57.825Z,3.20
2023-02-07T21:04:26.639Z,3.00
2023-02-07T21:06:54.826Z,2.77
2023-02-07T21:09:24.265Z,2.60
2023-02-07T21:11:54.452Z,3.07
2023-02-07T21:14:25.805Z,3.13
2023-02-07T21:16:54.395Z,3.37
2023-02-07T21:19:23.078Z,2.97
2023-02-07T21:21:51.710Z,3.87
2023-02-07T21:24:20.201Z,2.53
2023-02-07T21:26:50.519Z,2.47
2023-02-07T21:29:19.082Z,2.83
2023-02-07T21:31:47.559Z,4.90
2023-02-07T21:34:17.856Z,2.50
2023-02-07T21:36:46.041Z,3.40
2023-02-07T21:39:15.021Z,3.63
2023-02-07T21:41:46.013Z,3.40
2023-02-07T21:44:16.439Z,2.70
2023-02-07T21:46:48.295Z,3.47
2023-02-07T21:49:20.367Z,3.23
2023-02-07T21:51:50.185Z,2.43
2023-02-07T21:54:18.546Z,3.07
2023-02-07T21:56:47.093Z,3.50
2023-02-07T21:59:19.112Z,3.80
2023-02-07T22:01:48.040Z,3.70
2023-02-07T22:04:17.706Z,2.67
2023-02-07T22:06:50.552Z,3.50
2023-02-07T22:09:22.233Z,3.50
2023-02-07T22:11:50.994Z,3.03
2023-02-07T22:14:20.861Z,3.27
2023-02-07T22:16:52.262Z,4.00
2023-02-07T22:19:23.656Z,4.00
2023-02-07T22:21:52.373Z,2.93
2023-02-07T22:24:23.166Z,4.50
2023-02-07T22:26:51.368Z,4.10
2023-02-07T22:29:20.702Z,4.20
2023-02-07T22:31:48.769Z,3.73
2023-02-07T22:34:17.230Z,3.17
2023-02-07T22:36:46.999Z,3.90
2023-02-07T22:39:17.258Z,3.57
2023-02-07T22:41:46.129Z,3.83
2023-02-07T22:44:14.561Z,3.73
2023-02-07T22:46:44.406Z,3.90
2023-02-07T22:49:12.439Z,3.20
2023-02-07T22:51:40.463Z,3.80
2023-02-07T22:54:11.694Z,3.60
2023-02-07T22:56:40.395Z,3.33
2023-02-07T22:59:08.712Z,4.67
2023-02-07T23:01:39.664Z,3.30
2023-02-07T23:04:15.271Z,3.40
2023-02-07T23:06:44.246Z,3.20
2023-02-07T23:09:12.635Z,3.80
2023-02-07T23:11:40.725Z,3.10
2023-02-07T23:14:08.783Z,4.67
2023-02-07T23:16:38.223Z,3.70
2023-02-07T23:19:10.580Z,4.03
2023-02-07T23:21:38.657Z,3.70
2023-02-07T23:24:07.422Z,3.50
2023-02-07T23:26:35.621Z,3.53
2023-02-07T23:29:03.747Z,4.07
2023-02-07T23:31:32.031Z,3.43
2023-02-07T23:34:00.084Z,3.30
2023-02-07T23:36:29.493Z,3.30
2023-02-07T23:38:57.711Z,3.87
2023-02-07T23:41:25.745Z,3.33
2023-02-07T23:43:53.707Z,2.80
2023-02-07T23:46:21.726Z,3.57
2023-02-07T23:48:49.913Z,3.40
2023-02-07T23:51:18.030Z,2.80
2023-02-07T23:53:48.650Z,2.80
2023-02-07T23:56:19.369Z,2.63
2023-02-07T23:58:48.630Z,3.07
